Time;durP1;ratioP1;P1;durP2;ratioP2;P2;SDS_P1;SDS_P2;PMS_P1;PMS_P2;Temp;Humidity;BMP_temperature;BMP_pressure;BME280_temperature;BME280_humidity;BME280_pressure;Samples;Min_cycle;Max_cycle;Signal;HPM_P1;HPM_P2
2023/05/21 00:02:10;;;;;;;7.57;6.28;;;;;;;-148.88;100.00;-17125.47;5033683;28;20026;-83
2023/05/21 00:04:36;;;;;;;7.50;6.35;;;;;;;-148.88;100.00;-17125.47;5031742;28;20030;-83
2023/05/21 00:07:02;;;;;;;8.15;6.38;;;;;;;-148.88;100.00;-17125.47;5031526;28;20174;-82
2023/05/21 00:09:28;;;;;;;7.57;6.25;;;;;;;-148.88;100.00;-17125.47;5032947;28;20052;-83
2023/05/21 00:11:53;;;;;;;7.32;6.35;;;;;;;-148.88;100.00;-17125.47;5033235;28;20052;-83
2023/05/21 00:14:18;;;;;;;7.80;5.93;;;;;;;-148.88;100.00;-17125.47;5031792;28;20464;-83
2023/05/21 00:16:45;;;;;;;8.20;6.28;;;;;;;-148.88;100.00;-17125.47;5032943;28;20026;-83
2023/05/21 00:19:11;;;;;;;7.40;6.22;;;;;;;-148.88;100.00;-17125.47;5033739;28;20071;-84
2023/05/21 00:21:37;;;;;;;8.25;7.00;;;;;;;-148.88;100.00;-17125.47;5036084;28;20033;-84
2023/05/21 00:24:02;;;;;;;10.68;6.55;;;;;;;-148.88;100.00;-17125.47;5034364;28;20029;-83
2023/05/21 00:26:27;;;;;;;7.78;6.57;;;;;;;-148.88;100.00;-17125.47;5036936;28;20026;-83
2023/05/21 00:28:53;;;;;;;10.20;6.88;;;;;;;-148.88;100.00;-17125.47;5036002;28;20021;-84
2023/05/21 00:31:18;;;;;;;8.60;6.47;;;;;;;-148.88;100.00;-17125.47;5038403;28;20017;-83
2023/05/21 00:33:44;;;;;;;9.23;6.80;;;;;;;-148.88;100.00;-17125.47;5036792;28;20029;-83
2023/05/21 00:36:13;;;;;;;7.63;6.32;;;;;;;-148.88;100.00;-17125.47;5036812;28;20034;-82
2023/05/21 00:38:42;;;;;;;9.88;6.93;;;;;;;-148.88;100.00;-17125.47;5036648;28;20017;-83
2023/05/21 00:41:08;;;;;;;8.65;6.05;;;;;;;-148.88;100.00;-17125.47;5036474;28;20056;-83
2023/05/21 00:43:33;;;;;;;10.82;6.57;;;;;;;-148.88;100.00;-17125.47;5035768;28;20027;-83
2023/05/21 00:45:59;;;;;;;9.77;6.72;;;;;;;-148.88;100.00;-17125.47;5037099;28;20102;-82
2023/05/21 00:48:24;;;;;;;11.60;7.05;;;;;;;-148.88;100.00;-17125.47;5037074;28;20017;-83
2023/05/21 00:50:50;;;;;;;8.95;6.55;;;;;;;-148.88;100.00;-17125.47;5038906;28;20025;-83
2023/05/21 00:53:18;;;;;;;9.35;6.88;;;;;;;-148.88;100.00;-17125.47;5037398;28;20107;-83
2023/05/21 00:55:44;;;;;;;7.88;7.00;;;;;;;-148.88;100.00;-17125.47;5037332;28;20475;-83
2023/05/21 00:58:10;;;;;;;9.02;6.55;;;;;;;-148.88;100.00;-17125.47;5036586;28;20037;-82
2023/05/21 01:00:42;;;;;;;9.13;7.10;;;;;;;-148.88;100.00;-17125.47;5036973;28;20033;-83
2023/05/21 01:03:07;;;;;;;7.25;6.28;;;;;;;-148.88;100.00;-17125.47;5036450;28;20022;-83
2023/05/21 01:05:33;;;;;;;8.15;6.68;;;;;;;-148.88;100.00;-17125.47;5036192;28;20047;-83
2023/05/21 01:07:59;;;;;;;8.75;6.75;;;;;;;-148.88;100.00;-17125.47;5035004;28;20395;-80
2023/05/21 01:10:25;;;;;;;8.68;6.95;;;;;;;-148.88;100.00;-17125.47;5035783;28;20024;-82
2023/05/21 01:12:53;;;;;;;8.48;6.38;;;;;;;-148.88;100.00;-17125.47;5036217;28;20127;-82
2023/05/21 01:15:19;;;;;;;8.68;6.90;;;;;;;-148.88;100.00;-17125.47;5035039;28;20025;-83
2023/05/21 01:17:45;;;;;;;9.25;7.20;;;;;;;-148.88;100.00;-17125.47;5035725;28;20453;-83
2023/05/21 01:20:11;;;;;;;9.05;7.18;;;;;;;-148.88;100.00;-17125.47;5035807;28;20025;-82
2023/05/21 01:22:55;;;;;;;7.68;6.57;;;;;;;-148.88;100.00;-17125.47;5034546;28;20025;-82
2023/05/21 01:25:22;;;;;;;9.88;6.82;;;;;;;-148.88;100.00;-17125.47;5034428;28;20026;-83
2023/05/21 01:27:48;;;;;;;9.45;6.93;;;;;;;-148.88;100.00;-17125.47;5035981;28;20014;-83
2023/05/21 01:30:14;;;;;;;9.38;6.78;;;;;;;-148.88;100.00;-17125.47;5041841;28;20028;-83
2023/05/21 01:33:24;;;;;;;8.27;7.38;;;;;;;-148.88;100.00;-17125.47;5039492;28;20096;-84
2023/05/21 01:36:01;;;;;;;7.55;6.70;;;;;;;-148.88;100.00;-17125.47;5038880;28;20033;-83
2023/05/21 01:38:27;;;;;;;7.88;7.05;;;;;;;-148.88;100.00;-17125.47;5038794;28;20096;-83
2023/05/21 01:41:02;;;;;;;8.40;7.10;;;;;;;-148.88;100.00;-17125.47;5037671;28;20456;-83
2023/05/21 01:43:30;;;;;;;8.38;7.00;;;;;;;-148.88;100.00;-17125.47;5036851;28;20368;-85
2023/05/21 01:45:57;;;;;;;9.30;7.10;;;;;;;-148.88;100.00;-17125.47;5034604;28;20075;-83
2023/05/21 01:48:26;;;;;;;8.10;6.85;;;;;;;-148.88;100.00;-17125.47;5035543;28;20018;-83
2023/05/21 01:50:54;;;;;;;7.80;7.00;;;;;;;-148.88;100.00;-17125.47;5035432;28;20079;-81
2023/05/21 01:53:20;;;;;;;9.80;7.70;;;;;;;-148.88;100.00;-17125.47;5035491;28;20048;-83
2023/05/21 01:55:45;;;;;;;8.85;7.18;;;;;;;-148.88;100.00;-17125.47;5035274;28;20022;-82
2023/05/21 01:58:11;;;;;;;9.70;6.95;;;;;;;-148.88;100.00;-17125.47;5035167;28;20039;-83
2023/05/21 02:00:38;;;;;;;8.73;7.05;;;;;;;-148.88;100.00;-17125.47;5035463;28;20025;-83
2023/05/21 02:03:04;;;;;;;10.85;7.10;;;;;;;-148.88;100.00;-17125.47;5034809;28;20031;-83
2023/05/21 02:05:30;;;;;;;10.45;7.65;;;;;;;-148.88;100.00;-17125.47;5036480;28;20032;-83
2023/05/21 02:08:11;;;;;;;9.60;7.53;;;;;;;-148.88;100.00;-17125.47;5035035;28;20079;-82
2023/05/21 02:10:37;;;;;;;8.85;7.93;;;;;;;-148.88;100.00;-17125.47;5033596;28;20055;-83
2023/05/21 02:13:03;;;;;;;9.25;7.60;;;;;;;-148.88;100.00;-17125.47;5033667;28;20021;-81
2023/05/21 02:15:29;;;;;;;11.13;7.85;;;;;;;-148.88;100.00;-17125.47;5035097;28;20121;-83
2023/05/21 02:17:54;;;;;;;10.80;7.60;;;;;;;-148.88;100.00;-17125.47;5035403;28;20391;-84
2023/05/21 02:20:21;;;;;;;11.35;7.97;;;;;;;-148.88;100.00;-17125.47;5039965;28;20024;-83
2023/05/21 02:22:47;;;;;;;9.82;8.02;;;;;;;-148.88;100.00;-17125.47;5034830;28;20025;-83
2023/05/21 02:25:15;;;;;;;9.60;7.68;;;;;;;-148.88;100.00;-17125.47;5037607;28;20475;-83
2023/05/21 02:27:41;;;;;;;11.73;7.90;;;;;;;-148.88;100.00;-17125.47;5036979;28;20041;-83
2023/05/21 02:30:09;;;;;;;10.85;7.88;;;;;;;-148.88;100.00;-17125.47;5036085;28;20029;-83
2023/05/21 02:32:34;;;;;;;9.30;7.75;;;;;;;-148.88;100.00;-17125.47;5037315;28;20026;-84
2023/05/21 02:35:03;;;;;;;9.15;7.45;;;;;;;-148.88;100.00;-17125.47;5036946;28;20498;-83
2023/05/21 02:37:28;;;;;;;9.85;8.20;;;;;;;-148.88;100.00;-17125.47;5036818;28;20021;-84
2023/05/21 02:39:54;;;;;;;10.23;7.68;;;;;;;-148.88;100.00;-17125.47;5035044;28;20113;-83
2023/05/21 02:42:23;;;;;;;12.38;8.57;;;;;;;-148.88;100.00;-17125.47;5036472;28;20045;-83
2023/05/21 02:44:50;;;;;;;9.82;8.32;;;;;;;-148.88;100.00;-17125.47;5035259;28;20028;-84
2023/05/21 02:47:16;;;;;;;11.68;8.27;;;;;;;-148.88;100.00;-17125.47;5035965;28;20030;-83
2023/05/21 02:49:41;;;;;;;9.70;7.60;;;;;;;-148.88;100.00;-17125.47;5036603;28;20380;-84
2023/05/21 02:52:06;;;;;;;12.27;8.32;;;;;;;-148.88;100.00;-17125.47;5035219;28;20063;-83
2023/05/21 02:54:32;;;;;;;10.90;8.20;;;;;;;-148.88;100.00;-17125.47;5035396;28;20506;-83
2023/05/21 02:56:57;;;;;;;11.27;8.25;;;;;;;-148.88;100.00;-17125.47;5034567;28;20030;-83
2023/05/21 02:59:23;;;;;;;10.40;8.18;;;;;;;-148.88;100.00;-17125.47;5033815;28;20033;-84
2023/05/21 03:01:48;;;;;;;9.73;7.88;;;;;;;-148.88;100.00;-17125.47;5032892;28;20056;-83
2023/05/21 03:04:16;;;;;;;11.48;8.65;;;;;;;-148.88;100.00;-17125.47;5033793;28;20030;-83
2023/05/21 03:06:41;;;;;;;10.48;8.05;;;;;;;-148.88;100.00;-17125.47;5032446;28;20048;-83
2023/05/21 03:09:07;;;;;;;11.77;8.63;;;;;;;-148.88;100.00;-17125.47;5032152;28;20325;-83
2023/05/21 03:11:32;;;;;;;9.70;8.25;;;;;;;-148.88;100.00;-17125.47;5032408;28;20062;-83
2023/05/21 03:13:57;;;;;;;11.88;8.68;;;;;;;-148.88;100.00;-17125.47;5032605;28;20076;-83
2023/05/21 03:16:23;;;;;;;10.48;8.18;;;;;;;-148.88;100.00;-17125.47;5033583;28;20041;-83
2023/05/21 03:18:48;;;;;;;10.32;8.20;;;;;;;-148.88;100.00;-17125.47;5033502;28;20021;-83
2023/05/21 03:21:14;;;;;;;10.77;9.25;;;;;;;-148.88;100.00;-17125.47;5033920;28;20026;-83
2023/05/21 03:23:42;;;;;;;9.73;8.68;;;;;;;-148.88;100.00;-17125.47;5034139;28;20037;-82
2023/05/21 03:26:08;;;;;;;10.95;8.23;;;;;;;-148.88;100.00;-17125.47;5033877;28;20021;-83
2023/05/21 03:28:34;;;;;;;10.68;8.93;;;;;;;-148.88;100.00;-17125.47;5034264;28;20040;-83
2023/05/21 03:31:00;;;;;;;11.13;7.68;;;;;;;-148.88;100.00;-17125.47;5032536;28;20021;-85
2023/05/21 03:33:25;;;;;;;11.35;8.35;;;;;;;-148.88;100.00;-17125.47;5034224;28;20060;-85
2023/05/21 03:35:51;;;;;;;10.00;8.57;;;;;;;-148.88;100.00;-17125.47;5033998;28;20564;-84
2023/05/21 03:38:16;;;;;;;11.75;8.60;;;;;;;-148.88;100.00;-17125.47;5033692;28;20029;-83
2023/05/21 03:40:42;;;;;;;9.80;8.43;;;;;;;-148.88;100.00;-17125.47;5032237;28;20056;-84
2023/05/21 03:43:07;;;;;;;10.63;8.93;;;;;;;-148.88;100.00;-17125.47;5035437;28;20025;-83
2023/05/21 03:45:32;;;;;;;10.52;8.77;;;;;;;-148.88;100.00;-17125.47;5036048;28;20025;-84
2023/05/21 03:48:00;;;;;;;10.77;8.65;;;;;;;-148.88;100.00;-17125.47;5038278;28;20053;-83
2023/05/21 03:50:26;;;;;;;12.10;8.80;;;;;;;-148.88;100.00;-17125.47;5035943;28;20108;-83
2023/05/21 03:52:51;;;;;;;11.73;8.43;;;;;;;-148.88;100.00;-17125.47;5034142;28;20495;-84
2023/05/21 03:55:23;;;;;;;11.23;8.25;;;;;;;-148.88;100.00;-17125.47;5038715;28;20499;-83
2023/05/21 03:57:48;;;;;;;11.10;8.82;;;;;;;-148.88;100.00;-17125.47;5037406;28;20026;-83
2023/05/21 04:00:14;;;;;;;11.40;8.40;;;;;;;-148.88;100.00;-17125.47;5036263;28;20029;-83
2023/05/21 04:02:39;;;;;;;10.50;8.25;;;;;;;-148.88;100.00;-17125.47;5037204;28;20028;-83
2023/05/21 04:05:05;;;;;;;11.65;8.50;;;;;;;-148.88;100.00;-17125.47;5036021;28;20028;-83
2023/05/21 04:07:31;;;;;;;10.15;8.73;;;;;;;-148.88;100.00;-17125.47;5035041;28;20018;-84
2023/05/21 04:09:56;;;;;;;10.20;8.70;;;;;;;-148.88;100.00;-17125.47;5032522;28;20029;-84
2023/05/21 04:12:22;;;;;;;11.18;8.30;;;;;;;-148.88;100.00;-17125.47;5033305;28;20025;-84
2023/05/21 04:14:47;;;;;;;12.95;8.35;;;;;;;-148.88;100.00;-17125.47;5032963;28;20094;-83
2023/05/21 04:17:13;;;;;;;12.65;8.45;;;;;;;-148.88;100.00;-17125.47;5038773;28;20030;-83
2023/05/21 04:19:38;;;;;;;10.30;8.27;;;;;;;-148.88;100.00;-17125.47;5040884;28;20030;-83
2023/05/21 04:22:04;;;;;;;9.10;7.95;;;;;;;-148.88;100.00;-17125.47;5040086;28;20025;-82
2023/05/21 04:24:30;;;;;;;12.80;8.85;;;;;;;-148.88;100.00;-17125.47;5040578;28;20029;-83
2023/05/21 04:26:59;;;;;;;11.02;8.45;;;;;;;-148.88;100.00;-17125.47;5040411;28;20101;-83
2023/05/21 04:29:25;;;;;;;11.07;8.25;;;;;;;-148.88;100.00;-17125.47;5037976;28;20021;-83
2023/05/21 04:31:51;;;;;;;11.52;8.32;;;;;;;-148.88;100.00;-17125.47;5038216;28;20364;-82
2023/05/21 04:34:34;;;;;;;13.80;8.80;;;;;;;-148.88;100.00;-17125.47;5038203;28;20029;-83
2023/05/21 04:37:03;;;;;;;10.10;8.68;;;;;;;-148.88;100.00;-17125.47;5037745;28;20025;-83
2023/05/21 04:39:30;;;;;;;9.60;8.13;;;;;;;-148.88;100.00;-17125.47;5035696;28;20032;-83
2023/05/21 04:41:55;;;;;;;11.15;8.20;;;;;;;-148.88;100.00;-17125.47;5033434;28;20090;-83
2023/05/21 04:44:21;;;;;;;9.70;8.23;;;;;;;-148.88;100.00;-17125.47;5034414;28;20104;-82
2023/05/21 04:46:47;;;;;;;12.32;8.25;;;;;;;-148.88;100.00;-17125.47;5032411;28;20030;-83
2023/05/21 04:49:14;;;;;;;11.05;8.02;;;;;;;-148.88;100.00;-17125.47;5032020;28;20390;-83
2023/05/21 04:51:40;;;;;;;15.13;8.95;;;;;;;-148.88;100.00;-17125.47;5031861;28;20029;-83
2023/05/21 04:54:06;;;;;;;10.82;7.72;;;;;;;-148.88;100.00;-17125.47;5049922;28;20021;-83
2023/05/21 04:56:31;;;;;;;9.13;7.68;;;;;;;-148.88;100.00;-17125.47;5054713;28;20021;-82
2023/05/21 04:59:00;;;;;;;11.02;8.27;;;;;;;-148.88;100.00;-17125.47;5044770;28;20116;-83
2023/05/21 05:01:28;;;;;;;11.00;7.88;;;;;;;-148.88;100.00;-17125.47;5036291;28;20025;-83
2023/05/21 05:03:53;;;;;;;9.38;8.15;;;;;;;-148.88;100.00;-17125.47;5033424;28;20025;-83
2023/05/21 05:06:20;;;;;;;10.25;8.02;;;;;;;-148.88;100.00;-17125.47;5033459;28;20021;-83
2023/05/21 05:08:45;;;;;;;10.55;8.50;;;;;;;-148.88;100.00;-17125.47;5033093;28;20475;-82
2023/05/21 05:11:11;;;;;;;11.32;7.68;;;;;;;-148.88;100.00;-17125.47;5033373;28;20029;-83
2023/05/21 05:13:40;;;;;;;10.13;8.13;;;;;;;-148.88;100.00;-17125.47;5031755;28;20033;-83
2023/05/21 05:16:06;;;;;;;14.02;7.60;;;;;;;-148.88;100.00;-17125.47;5031679;28;20116;-83
2023/05/21 05:18:32;;;;;;;10.80;8.10;;;;;;;-148.88;100.00;-17125.47;5034629;28;20025;-83
2023/05/21 05:20:58;;;;;;;8.85;7.47;;;;;;;-148.88;100.00;-17125.47;5036185;28;20060;-84
2023/05/21 05:23:24;;;;;;;9.27;7.55;;;;;;;-148.88;100.00;-17125.47;5035134;28;20053;-83
2023/05/21 05:25:49;;;;;;;9.40;7.80;;;;;;;-148.88;100.00;-17125.47;5036389;28;20025;-83
2023/05/21 05:28:15;;;;;;;10.15;7.88;;;;;;;-148.88;100.00;-17125.47;5035203;28;20022;-83
2023/05/21 05:30:40;;;;;;;9.25;7.53;;;;;;;-148.88;100.00;-17125.47;5035262;28;20104;-84
2023/05/21 05:33:06;;;;;;;10.57;7.88;;;;;;;-148.88;100.00;-17125.47;5034745;28;20047;-84
2023/05/21 05:35:31;;;;;;;9.68;7.30;;;;;;;-148.88;100.00;-17125.47;5034790;28;20069;-84
2023/05/21 05:38:02;;;;;;;10.93;7.80;;;;;;;-148.88;100.00;-17125.47;5035926;28;20036;-83
2023/05/21 05:40:28;;;;;;;9.05;7.28;;;;;;;-148.88;100.00;-17125.47;5034583;28;20029;-83
2023/05/21 05:42:53;;;;;;;9.68;7.50;;;;;;;-148.88;100.00;-17125.47;5034476;28;20032;-84
2023/05/21 05:45:19;;;;;;;9.10;7.32;;;;;;;-148.88;100.00;-17125.47;5035692;28;20426;-84
2023/05/21 05:47:45;;;;;;;11.52;8.25;;;;;;;-148.88;100.00;-17125.47;5035687;28;20396;-84
2023/05/21 05:50:10;;;;;;;9.02;7.63;;;;;;;-148.88;100.00;-17125.47;5035837;28;20021;-84
2023/05/21 05:52:36;;;;;;;8.68;7.10;;;;;;;-148.88;100.00;-17125.47;5035855;28;20028;-85
2023/05/21 05:55:01;;;;;;;9.75;7.68;;;;;;;-148.88;100.00;-17125.47;5035612;28;20669;-83
2023/05/21 05:57:27;;;;;;;10.82;7.57;;;;;;;-148.88;100.00;-17125.47;5036538;28;20029;-84
2023/05/21 05:59:52;;;;;;;9.85;7.70;;;;;;;-148.88;100.00;-17125.47;5045159;28;20044;-84
2023/05/21 06:02:18;;;;;;;9.27;7.50;;;;;;;-148.88;100.00;-17125.47;5036179;28;20063;-82
2023/05/21 06:04:43;;;;;;;9.85;7.68;;;;;;;-148.88;100.00;-17125.47;5036281;28;20492;-83
2023/05/21 06:07:09;;;;;;;9.73;7.75;;;;;;;-148.88;100.00;-17125.47;5036312;28;20025;-84
2023/05/21 06:09:34;;;;;;;11.00;7.75;;;;;;;-148.88;100.00;-17125.47;5035944;28;20479;-83
2023/05/21 06:12:00;;;;;;;9.80;8.40;;;;;;;-148.88;100.00;-17125.47;5039271;28;20103;-83
2023/05/21 06:14:25;;;;;;;11.13;7.80;;;;;;;-148.88;100.00;-17125.47;5038794;28;20097;-84
2023/05/21 06:16:50;;;;;;;10.48;7.80;;;;;;;-148.88;100.00;-17125.47;5036291;28;20025;-85
2023/05/21 06:19:16;;;;;;;8.48;7.03;;;;;;;-148.88;100.00;-17125.47;5034380;28;20087;-84
2023/05/21 06:21:41;;;;;;;12.35;8.98;;;;;;;-148.88;100.00;-17125.47;5035294;28;20037;-84
2023/05/21 06:24:07;;;;;;;12.55;8.27;;;;;;;-148.88;100.00;-17125.47;5034076;28;20037;-85
2023/05/21 06:26:32;;;;;;;12.90;8.55;;;;;;;-148.88;100.00;-17125.47;5034373;28;20029;-84
2023/05/21 06:28:57;;;;;;;8.90;7.57;;;;;;;-148.88;100.00;-17125.47;5035025;28;20380;-84
2023/05/21 06:31:23;;;;;;;12.88;8.50;;;;;;;-148.88;100.00;-17125.47;5035824;28;20017;-84
2023/05/21 06:33:48;;;;;;;11.85;8.40;;;;;;;-148.88;100.00;-17125.47;5035727;28;20033;-85
2023/05/21 06:36:15;;;;;;;11.88;8.63;;;;;;;-148.88;100.00;-17125.47;5034087;28;20017;-84
2023/05/21 06:38:41;;;;;;;11.65;8.77;;;;;;;-148.88;100.00;-17125.47;5034844;28;20022;-85
2023/05/21 06:41:07;;;;;;;11.07;8.82;;;;;;;-148.88;100.00;-17125.47;5033349;28;20029;-84
2023/05/21 06:43:32;;;;;;;11.23;8.85;;;;;;;-148.88;100.00;-17125.47;5034319;28;20341;-84
2023/05/21 06:45:57;;;;;;;9.68;8.60;;;;;;;-148.88;100.00;-17125.47;5033057;28;20136;-84
2023/05/21 06:48:23;;;;;;;11.80;8.82;;;;;;;-148.88;100.00;-17125.47;5034608;28;20033;-84
2023/05/21 06:50:48;;;;;;;12.85;8.70;;;;;;;-148.88;100.00;-17125.47;5034484;28;20027;-85
2023/05/21 06:53:15;;;;;;;10.73;8.18;;;;;;;-148.88;100.00;-17125.47;5034132;28;20029;-84
2023/05/21 06:55:43;;;;;;;11.15;8.88;;;;;;;-148.88;100.00;-17125.47;5032828;28;20499;-85
2023/05/21 06:58:11;;;;;;;10.45;8.57;;;;;;;-148.88;100.00;-17125.47;5033932;28;20075;-86
2023/05/21 07:00:36;;;;;;;10.38;8.90;;;;;;;-148.88;100.00;-17125.47;5034261;28;20434;-87
2023/05/21 07:03:02;;;;;;;12.27;8.15;;;;;;;-148.88;100.00;-17125.47;5032547;28;20502;-86
2023/05/21 07:05:27;;;;;;;10.20;8.20;;;;;;;-148.88;100.00;-17125.47;5033245;28;20415;-86
2023/05/21 07:07:53;;;;;;;10.85;8.18;;;;;;;-148.88;100.00;-17125.47;5032777;28;20021;-87
2023/05/21 07:10:19;;;;;;;10.38;8.13;;;;;;;-148.88;100.00;-17125.47;5032428;28;20028;-87
2023/05/21 07:12:46;;;;;;;10.63;8.45;;;;;;;-148.88;100.00;-17125.47;5032754;28;20029;-86
2023/05/21 07:15:12;;;;;;;10.60;7.75;;;;;;;-148.88;100.00;-17125.47;5035112;28;20026;-87
2023/05/21 07:17:37;;;;;;;9.98;7.60;;;;;;;-148.88;100.00;-17125.47;5032808;28;20030;-87
2023/05/21 07:20:06;;;;;;;14.60;8.85;;;;;;;-148.88;100.00;-17125.47;5032484;28;20052;-86
2023/05/21 07:22:32;;;;;;;10.02;7.95;;;;;;;-148.88;100.00;-17125.47;5032378;28;20399;-85
2023/05/21 07:24:57;;;;;;;9.77;7.72;;;;;;;-148.88;100.00;-17125.47;5032079;28;20022;-87
2023/05/21 07:27:22;;;;;;;11.18;8.52;;;;;;;-148.88;100.00;-17125.47;5033223;28;20166;-87
2023/05/21 07:29:48;;;;;;;12.38;8.60;;;;;;;-148.88;100.00;-17125.47;5032151;28;20542;-86
2023/05/21 07:32:13;;;;;;;11.60;8.90;;;;;;;-148.88;100.00;-17125.47;5032200;28;20024;-87
2023/05/21 07:34:38;;;;;;;13.07;9.23;;;;;;;-148.88;100.00;-17125.47;5032317;28;20621;-87
2023/05/21 07:37:07;;;;;;;13.00;9.40;;;;;;;-148.88;100.00;-17125.47;5033309;28;20440;-87
2023/05/21 07:39:32;;;;;;;12.60;8.90;;;;;;;-148.88;100.00;-17125.47;5031390;28;20033;-87
2023/05/21 07:41:58;;;;;;;11.93;9.13;;;;;;;-148.88;100.00;-17125.47;5033293;28;20415;-87
2023/05/21 07:44:23;;;;;;;10.15;8.57;;;;;;;-148.88;100.00;-17125.47;5032130;28;20032;-87
2023/05/21 07:46:48;;;;;;;11.00;9.45;;;;;;;-148.88;100.00;-17125.47;5033500;28;20068;-87
2023/05/21 07:49:15;;;;;;;12.20;9.57;;;;;;;-148.88;100.00;-17125.47;5032625;28;20025;-87
2023/05/21 07:51:42;;;;;;;11.80;9.35;;;;;;;-148.88;100.00;-17125.47;5031908;28;20025;-87
2023/05/21 07:54:08;;;;;;;12.70;9.70;;;;;;;-148.88;100.00;-17125.47;5032293;28;20031;-87
2023/05/21 07:56:33;;;;;;;12.98;9.40;;;;;;;-148.88;100.00;-17125.47;5031829;28;20112;-88
2023/05/21 07:59:00;;;;;;;13.63;10.50;;;;;;;-148.88;100.00;-17125.47;5031952;28;20042;-86
2023/05/21 08:01:28;;;;;;;12.57;10.00;;;;;;;-148.88;100.00;-17125.47;5031710;28;20030;-87
2023/05/21 08:03:53;;;;;;;13.68;10.10;;;;;;;-148.88;100.00;-17125.47;5032197;28;20025;-88
2023/05/21 08:06:19;;;;;;;15.18;10.15;;;;;;;-148.88;100.00;-17125.47;5032155;28;20075;-87
2023/05/21 08:08:44;;;;;;;11.68;8.75;;;;;;;-148.88;100.00;-17125.47;5031720;28;20021;-88
2023/05/21 08:11:10;;;;;;;14.82;10.80;;;;;;;-148.88;100.00;-17125.47;5031959;28;20026;-87
2023/05/21 08:13:35;;;;;;;12.60;10.20;;;;;;;-148.88;100.00;-17125.47;5036804;28;20018;-89
2023/05/21 08:16:01;;;;;;;12.02;9.77;;;;;;;-148.88;100.00;-17125.47;5034053;28;20532;-87
2023/05/21 08:18:26;;;;;;;14.80;10.68;;;;;;;-148.88;100.00;-17125.47;5032061;28;20026;-88
2023/05/21 08:20:52;;;;;;;13.48;10.00;;;;;;;-148.88;100.00;-17125.47;5033944;28;20464;-88
2023/05/21 08:23:17;;;;;;;14.80;10.55;;;;;;;-148.88;100.00;-17125.47;5032135;28;20029;-88
2023/05/21 08:25:42;;;;;;;13.85;10.40;;;;;;;-148.88;100.00;-17125.47;5032254;28;20021;-87
2023/05/21 08:28:08;;;;;;;13.82;10.80;;;;;;;-148.88;100.00;-17125.47;5032238;28;20583;-87
2023/05/21 08:30:33;;;;;;;13.52;11.27;;;;;;;-148.88;100.00;-17125.47;5032339;28;20388;-87
2023/05/21 08:33:00;;;;;;;12.43;10.48;;;;;;;-148.88;100.00;-17125.47;5032624;28;20391;-88
2023/05/21 08:35:25;;;;;;;13.05;11.13;;;;;;;-148.88;100.00;-17125.47;5032197;28;20028;-88
2023/05/21 08:37:50;;;;;;;14.05;11.32;;;;;;;-148.88;100.00;-17125.47;5031949;28;20026;-88
2023/05/21 08:40:16;;;;;;;14.40;10.23;;;;;;;-148.88;100.00;-17125.47;5031810;28;20475;-88
2023/05/21 08:42:44;;;;;;;14.02;11.80;;;;;;;-148.88;100.00;-17125.47;5032099;28;20021;-87
2023/05/21 08:45:15;;;;;;;13.18;10.60;;;;;;;-148.88;100.00;-17125.47;5032129;28;20087;-87
2023/05/21 08:47:43;;;;;;;14.27;11.50;;;;;;;-148.88;100.00;-17125.47;5031857;28;20057;-87
2023/05/21 08:50:14;;;;;;;14.55;12.30;;;;;;;-148.88;100.00;-17125.47;5032215;28;20029;-86
2023/05/21 08:52:40;;;;;;;25.35;12.00;;;;;;;-148.88;100.00;-17125.47;5035671;28;20025;-88
2023/05/21 08:55:07;;;;;;;14.18;11.82;;;;;;;-148.88;100.00;-17125.47;5035699;28;20029;-88
2023/05/21 08:57:32;;;;;;;14.05;11.75;;;;;;;-148.88;100.00;-17125.47;5035806;28;20034;-88
2023/05/21 09:00:00;;;;;;;16.20;12.00;;;;;;;-148.88;100.00;-17125.47;5035446;28;20039;-89
2023/05/21 09:02:26;;;;;;;14.75;11.32;;;;;;;-148.88;100.00;-17125.47;5036034;28;20038;-88
2023/05/21 09:04:57;;;;;;;15.00;12.20;;;;;;;-148.88;99.69;-17125.47;5036430;28;20029;-89
2023/05/21 09:07:29;;;;;;;15.75;12.43;;;;;;;-148.88;100.00;-17125.47;5035425;28;20064;-88
2023/05/21 09:10:09;;;;;;;16.70;13.45;;;;;;;-148.88;99.18;-17125.47;5035208;28;20464;-89
2023/05/21 09:12:35;;;;;;;16.05;12.63;;;;;;;-148.88;99.40;-17125.47;5035367;28;20476;-88
2023/05/21 09:15:02;;;;;;;16.15;12.52;;;;;;;-148.88;98.45;-17125.47;5035747;28;20029;-88
2023/05/21 09:17:27;;;;;;;18.73;13.13;;;;;;;-148.88;96.71;-17125.47;5035388;28;20059;-89
2023/05/21 09:20:15;;;;;;;16.90;12.85;;;;;;;-148.88;96.29;-17125.47;5035086;28;20445;-89
2023/05/21 09:22:43;;;;;;;17.73;13.55;;;;;;;-148.88;97.38;-17125.47;5034828;28;20495;-88
2023/05/21 09:25:15;;;;;;;15.05;13.48;;;;;;;-148.88;98.90;-17125.47;5035243;28;20112;-87
2023/05/21 09:27:40;;;;;;;15.77;13.02;;;;;;;-148.88;99.40;-17125.47;5034731;28;20044;-89
2023/05/21 09:30:11;;;;;;;16.52;12.73;;;;;;;-148.88;99.71;-17125.47;5034433;28;20400;-88
2023/05/21 09:32:37;;;;;;;16.25;12.55;;;;;;;-148.88;97.45;-17125.47;5035020;28;20024;-88
2023/05/21 09:35:11;;;;;;;17.38;13.60;;;;;;;-148.88;99.20;-17125.47;5034817;28;20029;-88
2023/05/21 09:37:42;;;;;;;16.65;13.55;;;;;;;-148.88;97.39;-17125.47;5034371;28;20147;-88
2023/05/21 09:40:16;;;;;;;16.70;13.35;;;;;;;-148.88;90.99;-17125.47;5034824;28;20498;-88
2023/05/21 09:42:45;;;;;;;;;;;;;;;-148.88;93.93;-17125.47;5034842;28;20025;-88
2023/05/21 09:45:11;;;;;;;16.70;13.55;;;;;;;-148.88;93.61;-17125.47;5034390;28;19956;-88
2023/05/21 09:47:42;;;;;;;15.48;13.45;;;;;;;-148.88;91.46;-17125.47;5034192;28;20021;-89
2023/05/21 09:50:27;;;;;;;16.48;13.30;;;;;;;-148.88;90.75;-17125.47;5034301;28;20029;-88
2023/05/21 09:52:54;;;;;;;16.42;12.90;;;;;;;-148.88;90.84;-17125.47;5034972;28;20021;-89
2023/05/21 09:55:24;;;;;;;16.73;13.73;;;;;;;-148.88;88.07;-17125.47;5034232;28;20029;-90
2023/05/21 09:57:50;;;;;;;17.05;13.80;;;;;;;-148.88;88.97;-17125.47;5034187;28;20022;-88
2023/05/21 10:00:20;;;;;;;16.13;13.57;;;;;;;-148.88;90.13;-17125.47;5034618;28;20132;-89
2023/05/21 10:02:46;;;;;;;18.73;13.35;;;;;;;-148.88;91.05;-17125.47;5033514;28;20025;-88
2023/05/21 10:05:16;;;;;;;17.23;13.65;;;;;;;-148.88;90.49;-17125.47;5034039;28;20025;-88
2023/05/21 10:07:49;;;;;;;17.70;14.30;;;;;;;-148.88;91.34;-17125.47;5033969;28;20076;-87
2023/05/21 10:10:15;;;;;;;17.50;13.23;;;;;;;-148.88;90.77;-17125.47;5033898;28;20403;-89
2023/05/21 10:12:45;;;;;;;16.27;13.65;;;;;;;-148.88;89.30;-17125.47;5035876;28;20029;-89
2023/05/21 10:15:22;;;;;;;16.23;13.68;;;;;;;-148.88;90.51;-17125.47;5041351;28;20028;-87
2023/05/21 10:17:48;;;;;;;16.10;13.90;;;;;;;-148.88;91.53;-17125.47;5036158;28;20029;-88
2023/05/21 10:20:15;;;;;;;18.30;13.45;;;;;;;-148.88;90.34;-17125.47;5033691;28;20151;-89
2023/05/21 10:22:40;;;;;;;19.15;14.02;;;;;;;-148.88;88.97;-17125.47;5033623;28;20030;-89
2023/05/21 10:25:07;;;;;;;17.95;13.95;;;;;;;-148.88;90.15;-17125.47;5033713;28;20027;-88
2023/05/21 10:27:34;;;;;;;19.17;14.73;;;;;;;-148.88;90.18;-17125.47;5033826;28;20049;-89
2023/05/21 10:30:00;;;;;;;18.40;14.23;;;;;;;-148.88;87.75;-17125.47;5034238;28;20021;-88
2023/05/21 10:32:26;;;;;;;18.20;14.27;;;;;;;-148.88;90.75;-17125.47;5033904;28;20393;-88
2023/05/21 10:34:53;;;;;;;15.82;13.73;;;;;;;-148.88;89.02;-17125.47;5033378;28;20143;-89
2023/05/21 10:37:23;;;;;;;17.98;14.52;;;;;;;-148.88;87.42;-17125.47;5034384;28;20056;-88
2023/05/21 10:39:49;;;;;;;19.30;14.88;;;;;;;-148.88;86.57;-17125.47;5033237;28;20055;-88
2023/05/21 10:42:17;;;;;;;18.88;14.60;;;;;;;-148.88;86.64;-17125.47;5033614;28;20029;-88
2023/05/21 10:44:55;;;;;;;19.98;14.40;;;;;;;-148.88;86.13;-17125.47;5033175;28;20033;-87
2023/05/21 10:47:37;;;;;;;17.23;14.57;;;;;;;-148.88;87.43;-17125.47;5035361;28;20083;-88
2023/05/21 10:50:40;;;;;;;18.70;14.80;;;;;;;-148.88;88.90;-17125.47;5032943;28;20025;-89
2023/05/21 10:53:28;;;;;;;18.13;15.00;;;;;;;-148.88;86.86;-17125.47;5033508;28;20029;-89
2023/05/21 10:56:11;;;;;;;16.95;14.23;;;;;;;-148.88;82.39;-17125.47;5033122;28;20127;-89
2023/05/21 10:58:58;;;;;;;22.40;15.45;;;;;;;-148.88;85.20;-17125.47;5032987;28;20025;-87